アトランタ の空港の天気 - METARとTAF

ハーツフィールド・ジャクソン・アトランタ国際空港 ( KATL / ATL ) - アメリカ ジョージア州アトランタ
飛行場実況気象(Metar)
観測時間06/24 05:52 EDT (06/24 09:52 UTC)
風向・風速南南西 3m/s
視程10km以上
天気現象
少しの雲 雲底高度 7620m
気温22.2℃
湿度87%
気圧1014.3hPa
METARKATL 240952Z 21005KT 10SM FEW250 22/20 A2998 RMK AO2 SLP143 T02220200
過去の天気等 Google飛行場航空写真 Wunderground天気予報

過去48時間のMETAR

飛行場予報(TAF)
発表時間: 6/24 05:38 EDT (6/24 09:38 UTC)
予報対象時間: 24日6時 EDT ~ 25日8時 EDT
風向・風速南南西 2m/s
視程10km以上
少しの雲 雲底高度 3660m
全天の4割程度の雲 雲底高度 7620m
24日8時 EDT から
風向・風速南西 3m/s
視程10km以上
全天の4割程度の雲 雲底高度 300m
全天の4割程度の雲 雲底高度 7620m
24日8時 EDT ~ 24日10時 EDT に一時的に
全天の8割程度の雲 雲底高度 300m
24日10時 EDT から
風向・風速西 5m/s
視程10km以上
全天の4割程度の雲 雲底高度 910m
全天の4割程度の雲 雲底高度 3660m
24日12時 EDT から
風向・風速西 6m/s
視程10km以上
天気現象周辺でしゅう雨
全天の4割程度の雲 雲底高度 1370m
全天の8割程度の雲 雲底高度 3660m
24日15時 EDT ~ 24日19時 EDT に一時的に
風向・風速不定 10m/s 瞬間風速 15m/s
視程4830m
天気現象雷雨
全天の8割程度の積乱雲 雲底高度 910m
24日21時 EDT から
風向・風速西 4m/s
視程10km以上
全天の4割程度の雲 雲底高度 1520m
全天の4割程度の雲 雲底高度 2440m
KATL 240938Z 2410/2512 20003KT P6SM FEW120 SCT250
FM241200 22005KT P6SM SCT010 SCT250
TEMPO 2412/2414 BKN010
FM241400 26009KT P6SM SCT030 SCT120
FM241600 27012KT P6SM VCSH SCT045 BKN120
TEMPO 2419/2423 VRB20G30KT 3SM TSRA BKN030CB
FM250100 28008KT P6SM SCT050 SCT080